Kemerovo Airport
UNEE : now visible

Airfield :











YOU CAN JOIN US ON...

 
LOGIN :

Register | Disclaimer

   EN    FR    IT 

 









Legend :    VFR   Marginal VFR   IFR   Intensive IFR   Very Intensive IFR
Visi :
Ceiling :
>= 8 km
>= 3000ft
5 to 8 km
1000 to 3000 ft
1500m to 5 km
500 to 1000 ft
800 to 1500m
200 to 500 ft
< 800m
< 200 ft
Symbols :   Thunderstorms  Fog  Heavy snow  Heavy precipitations  Wind > 20 kt






- Airport Elevation : 863 ft
- IATA code : KEJ


UNEE - Kemerovo

CURRENT METAR :
  • 271130Z 13004MPS 2900 -SHSN BKN016CB M05/M10 Q1005 R23/920550 NOSIG RMK QFE731

EXPIRED METARs :
  • 271100Z 13004MPS 9999 SCT023CB M04/M12 Q1005 R23/920550 NOSIG RMK QFE731
  • 271030Z 12004MPS 9999 SCT044CB M05/M12 Q1005 R23/920550 NOSIG RMK QFE731
  • 271000Z 14003MPS 9999 SCT044CB M06/M12 Q1005 R23/920550 NOSIG RMK QFE731
  • 270930Z 10004MPS 9999 SCT035CB M06/M13 Q1005 R23/920550 NOSIG RMK QFE731
  • 270900Z 08004MPS 9999 BKN035CB M05/M12 Q1005 R23/920550 NOSIG RMK QFE731

TAF AMD TAF UNEE
Valid from the 27 at 11:00 until the 28 at 12:00 UTC


271125Z 2711/2812 15003G08MPS 6000 -SHSN SCT020CB
BECMG 2712/2715 18008G16MPS
TEMPO 2711/2803 0500 +SHSNRA BKN003 BKN015CB
BECMG 2722/2724 24008G16MPS
TEMPO 2803/2812 1200 SHSNRA BKN004 BKN015CB



MET'MAP, your aeronautical weather chart ! - Copyright ORBIFLY December 2007 - Disclaimer

ORBIFLY MET'MAP TEAM :

Programming & Development : Alexandra Zaïnal
Concept & original design : Baudouin d'Aumeries
Assistance for programming : Marc-Olivier Méhu
Technical & hardware support : Manuel Goepfert

Contact : metmap@orbifly.com




SOURCES & CREDITS :

   NOAA       Earth
Advisory